Time;durP1;ratioP1;P1;durP2;ratioP2;P2;SDS_P1;SDS_P2;PMS_P1;PMS_P2;Temp;Humidity;BMP_temperature;BMP_pressure;BME280_temperature;BME280_humidity;BME280_pressure;Samples;Min_cycle;Max_cycle;Signal;HPM_P1;HPM_P2
2022/03/22 00:00:39;;;;;;;32.83;9.98;;;;;;;3.16;57.64;101667.56;5095358;28;20105;-77
2022/03/22 00:03:07;;;;;;;38.33;10.75;;;;;;;3.20;57.73;101678.94;5096035;28;20052;-78
2022/03/22 00:05:39;;;;;;;39.38;12.18;;;;;;;3.03;58.06;101665.91;5096017;28;20567;-76
2022/03/22 00:08:07;;;;;;;38.13;12.90;;;;;;;2.82;58.00;101647.38;5089288;28;20086;-77
2022/03/22 00:10:34;;;;;;;34.65;11.73;;;;;;;2.83;58.35;101661.16;5088593;28;20055;-78
2022/03/22 00:13:04;;;;;;;32.17;10.82;;;;;;;2.64;58.43;101644.50;5095898;28;20410;-77
2022/03/22 00:15:31;;;;;;;30.50;10.48;;;;;;;2.80;58.41;101684.22;5096269;28;20071;-77
2022/03/22 00:18:20;;;;;;;27.48;10.02;;;;;;;2.72;58.46;101673.38;5095210;28;20121;-78
2022/03/22 00:20:49;;;;;;;29.00;9.30;;;;;;;2.63;58.35;101667.66;5094441;28;20064;-78
2022/03/22 00:23:19;;;;;;;26.40;8.75;;;;;;;2.41;59.03;101634.38;5095951;28;20048;-77
2022/03/22 00:25:46;;;;;;;23.85;8.90;;;;;;;2.58;58.84;101684.50;5096833;28;20056;-77
2022/03/22 00:28:14;;;;;;;26.35;9.57;;;;;;;2.46;59.02;101657.13;5099107;28;20052;-78
2022/03/22 00:30:41;;;;;;;27.23;8.75;;;;;;;2.42;58.89;101651.66;5112203;28;20071;-77
2022/03/22 00:33:09;;;;;;;24.52;8.07;;;;;;;2.50;59.10;101673.69;5119891;28;20052;-77
2022/03/22 00:35:38;;;;;;;24.17;7.95;;;;;;;2.43;59.08;101674.06;5102331;28;20056;-76
2022/03/22 00:38:16;;;;;;;22.15;8.77;;;;;;;2.40;59.25;101679.94;5096424;28;20048;-78
2022/03/22 00:40:50;;;;;;;26.80;10.05;;;;;;;2.34;59.65;101674.38;5095735;28;20496;-78
2022/03/22 00:43:17;;;;;;;28.63;8.93;;;;;;;2.24;59.75;101661.69;5095394;28;20052;-78
2022/03/22 00:45:44;;;;;;;32.25;9.95;;;;;;;2.28;59.60;101655.03;5095509;28;20509;-76
2022/03/22 00:48:14;;;;;;;29.02;9.07;;;;;;;2.31;59.92;101665.56;5095371;28;20051;-77
2022/03/22 00:50:43;;;;;;;28.00;9.20;;;;;;;2.34;59.82;101670.91;5095894;28;20109;-79
2022/03/22 00:53:15;;;;;;;29.25;10.05;;;;;;;2.08;59.79;101613.34;5095005;28;20078;-77
2022/03/22 00:55:43;;;;;;;30.58;8.75;;;;;;;2.22;59.67;101622.00;5095833;28;20051;-76
2022/03/22 00:58:12;;;;;;;29.13;8.45;;;;;;;2.41;59.71;101650.78;5096453;28;20048;-77
2022/03/22 01:00:41;;;;;;;33.05;8.93;;;;;;;2.45;59.91;101655.34;5095810;28;20519;-78
2022/03/22 01:03:13;;;;;;;31.52;10.25;;;;;;;2.49;60.11;101653.84;5063125;28;20113;-78
2022/03/22 01:05:40;;;;;;;29.35;10.02;;;;;;;2.51;59.88;101657.41;5094883;28;20051;-77
2022/03/22 01:08:10;;;;;;;31.88;8.88;;;;;;;2.53;59.88;101649.78;5094608;28;20062;-77
2022/03/22 01:10:41;;;;;;;29.65;9.20;;;;;;;2.31;60.02;101604.53;5095102;28;20497;-77
2022/03/22 01:13:11;;;;;;;27.27;9.60;;;;;;;2.52;59.79;101622.19;5095079;28;20048;-78
2022/03/22 01:15:42;;;;;;;27.30;8.83;;;;;;;2.51;59.77;101643.63;5095066;28;20528;-78
2022/03/22 01:18:12;;;;;;;28.92;9.77;;;;;;;2.50;59.69;101629.84;5094639;28;20082;-78
2022/03/22 01:20:41;;;;;;;28.48;8.68;;;;;;;2.55;60.13;101638.75;5094595;28;20067;-78
2022/03/22 01:23:10;;;;;;;30.93;8.37;;;;;;;2.50;60.16;101644.44;5094658;28;20469;-77
2022/03/22 01:25:39;;;;;;;31.30;9.02;;;;;;;2.31;60.17;101596.81;5093315;28;20117;-79
2022/03/22 01:28:08;;;;;;;27.13;8.80;;;;;;;2.44;60.40;101625.16;5094938;28;20048;-77
2022/03/22 01:30:36;;;;;;;35.13;9.70;;;;;;;2.47;60.34;101650.25;5094764;28;20086;-78
2022/03/22 01:33:04;;;;;;;28.80;8.43;;;;;;;2.46;60.36;101640.75;5097240;28;20044;-77
2022/03/22 01:35:32;;;;;;;25.13;8.45;;;;;;;2.48;60.42;101638.28;5095825;28;20505;-78
2022/03/22 01:37:59;;;;;;;32.45;9.30;;;;;;;2.42;60.59;101629.34;5095098;28;20044;-78
2022/03/22 01:40:28;;;;;;;28.15;9.00;;;;;;;2.48;60.38;101646.91;5094590;28;20047;-77
2022/03/22 01:42:55;;;;;;;26.23;9.10;;;;;;;2.49;60.42;101642.63;5094454;28;20444;-78
2022/03/22 01:45:22;;;;;;;23.17;8.95;;;;;;;2.48;60.35;101636.59;5094667;28;20052;-79
2022/03/22 01:47:50;;;;;;;24.75;8.70;;;;;;;2.40;60.21;101612.88;5094873;28;20048;-79
2022/03/22 01:50:22;;;;;;;29.10;9.20;;;;;;;2.54;60.07;101633.50;5093956;28;20501;-76
2022/03/22 01:52:49;;;;;;;27.83;9.07;;;;;;;2.42;60.12;101615.56;5094331;28;20060;-78
2022/03/22 01:55:20;;;;;;;30.55;9.95;;;;;;;2.35;60.34;101600.50;5093922;28;20109;-75
2022/03/22 01:57:47;;;;;;;26.10;8.25;;;;;;;2.36;60.25;101616.03;5094156;28;20104;-76
2022/03/22 02:00:20;;;;;;;24.95;8.55;;;;;;;2.22;60.51;101596.22;5093510;28;20058;-77
2022/03/22 02:05:54;;;;;;;27.95;8.82;;;;;;;2.31;60.76;101632.91;5093761;28;20063;-78
2022/03/22 02:08:32;;;;;;;28.83;9.88;;;;;;;2.31;60.91;101632.03;5093368;28;20110;-75
2022/03/22 02:11:00;;;;;;;33.47;10.40;;;;;;;2.25;60.93;101617.03;5093505;28;20497;-77
2022/03/22 02:13:29;;;;;;;31.25;9.80;;;;;;;2.31;61.20;101627.75;5093234;28;20085;-78
2022/03/22 02:15:59;;;;;;;38.20;11.73;;;;;;;2.29;61.09;101618.16;5092800;28;20097;-77
2022/03/22 02:18:27;;;;;;;37.88;11.82;;;;;;;2.30;60.75;101628.53;5093214;28;20063;-78
2022/03/22 02:20:55;;;;;;;44.30;15.00;;;;;;;2.30;60.68;101617.34;5093536;28;20565;-77
2022/03/22 02:23:50;;;;;;;41.15;13.32;;;;;;;2.30;60.85;101614.75;5092996;28;20482;-76
2022/03/22 02:26:19;;;;;;;50.50;13.93;;;;;;;2.26;60.93;101608.53;5093246;28;20055;-78
2022/03/22 02:28:46;;;;;;;48.00;15.02;;;;;;;2.30;60.74;101628.53;5092953;28;20105;-78
2022/03/22 02:31:13;;;;;;;42.15;14.95;;;;;;;2.30;60.70;101625.06;5092141;28;20497;-77
2022/03/22 02:33:42;;;;;;;53.47;14.43;;;;;;;2.31;60.42;101624.28;5079888;28;20087;-78
2022/03/22 02:36:10;;;;;;;41.58;15.48;;;;;;;2.23;60.68;101608.31;5073314;28;20048;-76
2022/03/22 02:38:37;;;;;;;39.83;14.77;;;;;;;2.27;60.98;101610.31;5072748;28;20499;-78
2022/03/22 02:41:05;;;;;;;50.40;16.25;;;;;;;2.28;61.08;101606.03;5072834;28;20048;-76
2022/03/22 02:43:34;;;;;;;42.17;15.95;;;;;;;2.25;61.14;101607.63;5072813;28;20533;-78
2022/03/22 02:46:00;;;;;;;45.03;17.00;;;;;;;2.24;61.21;101597.22;5073425;28;20050;-76
2022/03/22 02:48:28;;;;;;;50.63;16.60;;;;;;;1.96;61.23;101540.41;5073283;28;20147;-78
2022/03/22 02:50:56;;;;;;;47.38;15.75;;;;;;;2.19;60.93;101588.28;5072805;28;20044;-76
2022/03/22 02:53:23;;;;;;;45.25;14.98;;;;;;;2.20;61.29;101588.38;5079156;28;20082;-77
2022/03/22 02:55:50;;;;;;;44.65;16.23;;;;;;;2.04;61.35;101552.09;5062409;28;20052;-77
2022/03/22 02:58:17;;;;;;;45.50;15.98;;;;;;;2.20;61.06;101590.06;5074227;28;20048;-78
2022/03/22 03:00:44;;;;;;;55.70;17.48;;;;;;;2.09;61.13;101580.72;5084912;28;20052;-78
2022/03/22 03:03:11;;;;;;;45.25;15.80;;;;;;;2.16;61.28;101599.28;5081524;28;20036;-77
2022/03/22 03:05:38;;;;;;;38.70;14.27;;;;;;;2.16;61.38;101585.50;5117179;28;20040;-76
2022/03/22 03:08:07;;;;;;;39.58;14.05;;;;;;;2.13;61.31;101583.63;5096338;28;20476;-77
2022/03/22 03:10:34;;;;;;;45.90;14.95;;;;;;;2.17;61.09;101589.84;5093529;28;20056;-78
2022/03/22 03:13:03;;;;;;;37.45;12.88;;;;;;;2.20;61.11;101582.34;5092990;28;20147;-77
2022/03/22 03:15:30;;;;;;;33.53;11.10;;;;;;;2.22;60.50;101578.19;5093748;28;20147;-77
2022/03/22 03:17:58;;;;;;;32.78;11.52;;;;;;;2.25;60.30;101573.22;5093040;28;20052;-78
2022/03/22 03:20:25;;;;;;;33.35;11.25;;;;;;;2.29;59.79;101580.34;5092876;28;20048;-79
2022/03/22 03:22:52;;;;;;;28.02;9.98;;;;;;;2.32;59.80;101582.22;5093081;28;20056;-78
2022/03/22 03:25:20;;;;;;;28.08;10.98;;;;;;;2.13;59.46;101542.38;5092701;28;20472;-76
2022/03/22 03:27:47;;;;;;;29.05;10.23;;;;;;;2.36;59.02;101584.22;5097373;28;20052;-77
2022/03/22 03:30:14;;;;;;;31.88;10.18;;;;;;;2.36;58.56;101568.72;5096819;28;20063;-79
2022/03/22 03:32:43;;;;;;;29.00;9.82;;;;;;;2.23;58.69;101539.56;5092328;28;20174;-77
2022/03/22 03:35:10;;;;;;;24.55;9.18;;;;;;;2.46;58.64;101573.69;5076136;28;20048;-77
2022/03/22 03:37:39;;;;;;;28.52;8.45;;;;;;;2.49;58.62;101567.81;5076141;28;20480;-77
2022/03/22 03:40:06;;;;;;;28.38;8.98;;;;;;;2.51;58.13;101571.38;5076643;28;20060;-77
2022/03/22 03:42:39;;;;;;;25.63;8.93;;;;;;;2.58;57.90;101563.22;5076999;28;20126;-79
2022/03/22 03:47:52;;;;;;;24.95;9.00;;;;;;;2.48;57.59;101527.34;5077079;28;20151;-78
2022/03/22 03:50:19;;;;;;;24.50;8.63;;;;;;;2.72;57.79;101564.13;5077798;28;20122;-77
2022/03/22 03:52:46;;;;;;;28.42;9.77;;;;;;;2.78;57.63;101560.22;5096832;28;20143;-77
2022/03/22 03:55:13;;;;;;;28.58;9.77;;;;;;;2.81;57.63;101560.38;5096515;28;20052;-76
2022/03/22 03:57:40;;;;;;;29.38;9.57;;;;;;;2.94;57.30;101556.00;5096980;28;20078;-77
2022/03/22 04:00:07;;;;;;;27.08;9.25;;;;;;;2.96;57.39;101556.97;5096750;28;20056;-78
2022/03/22 04:02:40;;;;;;;22.67;8.73;;;;;;;2.99;56.32;101542.56;5077434;28;20552;-78
2022/03/22 04:05:09;;;;;;;24.65;9.00;;;;;;;3.18;56.22;101548.84;5076433;28;20052;-78
2022/03/22 04:07:36;;;;;;;24.70;8.27;;;;;;;3.26;55.75;101560.53;5075599;28;20147;-77
2022/03/22 04:10:04;;;;;;;23.38;8.60;;;;;;;3.32;55.80;101552.25;5085253;28;20541;-78
2022/03/22 04:12:31;;;;;;;23.27;7.85;;;;;;;3.35;55.06;101544.69;5076244;28;20058;-77
2022/03/22 04:14:59;;;;;;;26.20;8.55;;;;;;;3.39;55.25;101541.47;5075245;28;20067;-77
2022/03/22 04:17:26;;;;;;;27.58;8.68;;;;;;;3.43;54.75;101543.44;5076955;28;20060;-78
2022/03/22 04:19:53;;;;;;;23.92;8.68;;;;;;;3.48;54.66;101547.19;5092329;28;20094;-77
2022/03/22 04:22:20;;;;;;;20.67;7.72;;;;;;;3.57;54.22;101552.00;5094984;28;20052;-77
2022/03/22 04:24:47;;;;;;;23.20;8.07;;;;;;;3.41;53.83;101511.47;5094619;28;20055;-76
2022/03/22 04:32:47;;;;;;;18.00;7.22;;;;;;;4.08;52.43;101538.56;5088246;28;20540;-76
2022/03/22 04:35:20;;;;;;;19.00;8.25;;;;;;;4.26;52.50;101548.19;5080864;28;20052;-80
2022/03/22 04:37:49;;;;;;;17.85;6.90;;;;;;;4.33;51.32;101511.50;5078970;28;20127;-78
2022/03/22 04:40:17;;;;;;;16.55;7.03;;;;;;;4.56;51.38;101542.91;5077999;28;20056;-77
2022/03/22 04:42:45;;;;;;;20.42;7.28;;;;;;;4.59;50.69;101515.50;5095006;28;20052;-75
2022/03/22 04:45:13;;;;;;;15.38;6.45;;;;;;;4.74;50.03;101497.31;5078721;28;20063;-77
2022/03/22 04:47:40;;;;;;;19.75;6.47;;;;;;;5.01;49.68;101533.22;5074461;28;20534;-78
2022/03/22 04:50:08;;;;;;;17.77;6.18;;;;;;;4.95;49.80;101520.88;5074409;28;20114;-76
2022/03/22 04:58:08;;;;;;;19.13;6.28;;;;;;;5.43;48.70;101521.59;5075453;28;20052;-77
2022/03/22 05:00:38;;;;;;;20.33;7.28;;;;;;;5.64;48.49;101542.53;5090617;28;20105;-79
2022/03/22 05:03:08;;;;;;;;;;;;;;;5.67;48.94;101526.22;5073306;28;20494;-78
2022/03/22 05:08:21;;;;;;;19.42;6.95;;;;;;;6.16;47.81;101528.66;5079413;28;20048;-78
2022/03/22 05:10:48;;;;;;;16.48;6.60;;;;;;;6.27;47.50;101531.78;5088566;28;20083;-78
2022/03/22 05:13:21;;;;;;;19.50;6.82;;;;;;;6.36;46.98;101516.63;5093829;28;20079;-78
2022/03/22 05:15:48;;;;;;;14.93;6.80;;;;;;;6.62;46.23;101533.41;5103689;28;20078;-79
2022/03/22 05:18:15;;;;;;;16.13;7.00;;;;;;;6.68;46.11;101523.28;5096375;28;20139;-79
2022/03/22 05:20:42;;;;;;;15.20;7.25;;;;;;;6.88;45.74;101526.81;5095072;28;20519;-78
2022/03/22 05:23:10;;;;;;;16.05;7.15;;;;;;;7.11;45.07;101537.31;5094547;28;20059;-76
2022/03/22 05:25:36;;;;;;;18.67;7.13;;;;;;;7.28;44.84;101541.56;5094307;28;20494;-78
2022/03/22 05:28:04;;;;;;;19.95;7.18;;;;;;;7.26;44.37;101524.13;5094990;28;20056;-78
2022/03/22 05:30:32;;;;;;;16.38;6.60;;;;;;;7.35;44.62;101529.69;5095778;28;20063;-77
2022/03/22 05:33:00;;;;;;;18.42;8.00;;;;;;;7.36;44.51;101503.78;5098591;28;20056;-76
2022/03/22 05:35:27;;;;;;;16.92;7.43;;;;;;;7.61;44.21;101533.41;5114054;28;20048;-78
2022/03/22 05:37:55;;;;;;;22.27;7.55;;;;;;;7.59;43.69;101516.84;5118655;28;20074;-76
2022/03/22 05:40:22;;;;;;;21.10;7.93;;;;;;;7.66;44.13;101525.78;5098707;28;20112;-77
2022/03/22 05:42:49;;;;;;;18.73;6.95;;;;;;;7.61;43.67;101511.72;5094747;28;20050;-76
2022/03/22 05:45:16;;;;;;;18.55;7.63;;;;;;;7.74;43.39;101514.91;5086103;28;20059;-78
2022/03/22 05:47:44;;;;;;;19.48;6.97;;;;;;;7.74;43.16;101516.59;5053867;28;20053;-77
2022/03/22 05:50:11;;;;;;;19.67;8.05;;;;;;;7.70;43.32;101506.88;5052919;28;20111;-78
2022/03/22 05:52:44;;;;;;;20.25;7.72;;;;;;;7.71;43.25;101491.34;5054377;28;20087;-78
2022/03/22 05:55:12;;;;;;;18.83;7.20;;;;;;;7.79;43.08;101521.19;5054013;28;20060;-78
2022/03/22 05:57:39;;;;;;;20.30;7.32;;;;;;;7.75;43.39;101516.66;5053427;28;20084;-78
2022/03/22 06:00:08;;;;;;;21.00;8.05;;;;;;;7.66;43.33;101533.59;5055232;28;20045;-77
2022/03/22 06:02:39;;;;;;;27.33;8.52;;;;;;;7.65;42.89;101518.81;5054859;28;20045;-78
2022/03/22 06:05:08;;;;;;;20.13;7.75;;;;;;;7.55;43.50;101501.94;5053990;28;20053;-78
2022/03/22 06:07:36;;;;;;;20.60;8.02;;;;;;;7.60;43.22;101503.03;5053354;28;20063;-78
2022/03/22 06:10:07;;;;;;;22.70;7.50;;;;;;;7.65;42.87;101505.81;5061499;28;20047;-77
2022/03/22 06:12:41;;;;;;;19.88;8.32;;;;;;;7.53;42.77;101482.81;5083381;28;20048;-78
2022/03/22 06:15:16;;;;;;;17.95;7.30;;;;;;;7.40;43.10;101452.81;5083300;28;20055;-77
2022/03/22 06:17:58;;;;;;;18.58;8.18;;;;;;;7.59;42.88;101483.03;5088863;28;20047;-76
2022/03/22 06:20:27;;;;;;;17.30;8.30;;;;;;;7.58;42.74;101492.56;5082084;28;20048;-77
2022/03/22 06:22:59;;;;;;;17.75;8.10;;;;;;;7.61;43.01;101497.00;5086289;28;20139;-76
2022/03/22 06:25:26;;;;;;;19.00;7.70;;;;;;;7.55;42.90;101476.84;5090496;28;20076;-77
2022/03/22 06:27:54;;;;;;;24.30;7.93;;;;;;;7.61;43.35;101484.00;5092038;28;20055;-77
2022/03/22 06:30:23;;;;;;;22.23;7.70;;;;;;;7.71;42.85;101480.06;5092148;28;20056;-77
2022/03/22 06:32:57;;;;;;;23.13;8.32;;;;;;;7.72;42.89;101471.41;5093113;28;20052;-76
2022/03/22 06:35:30;;;;;;;23.25;7.97;;;;;;;7.75;42.72;101485.44;5093427;28;20044;-78
2022/03/22 06:37:59;;;;;;;21.58;8.23;;;;;;;7.67;42.82;101440.03;5081340;28;20060;-77
2022/03/22 06:40:29;;;;;;;20.17;7.63;;;;;;;7.42;42.52;101400.84;5074289;28;20066;-77
2022/03/22 06:42:58;;;;;;;18.60;8.63;;;;;;;7.66;42.33;101435.66;5074065;28;20513;-77
2022/03/22 06:45:25;;;;;;;20.05;8.90;;;;;;;7.86;42.66;101466.78;5082588;28;20318;-77
2022/03/22 06:47:52;;;;;;;20.48;8.27;;;;;;;7.90;42.59;101479.97;5092930;28;20063;-76
2022/03/22 06:50:19;;;;;;;20.88;8.15;;;;;;;7.91;42.32;101450.50;5093190;28;20048;-77
2022/03/22 06:52:47;;;;;;;26.45;9.18;;;;;;;8.17;42.30;101474.06;5093039;28;20098;-76
2022/03/22 06:55:22;;;;;;;22.25;8.65;;;;;;;8.23;41.95;101447.41;5093196;28;20052;-77
2022/03/22 06:57:56;;;;;;;17.50;8.13;;;;;;;8.16;41.92;101421.13;5093638;28;20052;-77
2022/03/22 07:00:24;;;;;;;22.30;9.05;;;;;;;8.36;41.65;101444.44;5093142;28;20108;-76
2022/03/22 07:02:50;;;;;;;22.67;8.52;;;;;;;8.58;41.71;101473.09;5092539;28;20513;-76
2022/03/22 07:05:18;;;;;;;20.90;8.27;;;;;;;8.72;41.93;101464.91;5092585;28;20056;-76
2022/03/22 07:07:45;;;;;;;21.13;9.05;;;;;;;8.73;41.65;101464.97;5092644;28;20510;-77
2022/03/22 07:10:15;;;;;;;20.80;8.77;;;;;;;8.80;41.26;101464.34;5092813;28;20048;-78
2022/03/22 07:12:52;;;;;;;26.97;8.70;;;;;;;8.91;41.00;101469.94;5074055;28;20048;-79
2022/03/22 07:15:26;;;;;;;25.88;8.90;;;;;;;9.09;40.85;101467.09;5075463;28;20129;-77
2022/03/22 07:17:54;;;;;;;20.10;8.90;;;;;;;9.22;40.23;101471.00;5074467;28;20115;-77
2022/03/22 07:20:21;;;;;;;21.05;9.38;;;;;;;9.32;40.51;101464.41;5073066;28;20114;-76
2022/03/22 07:22:49;;;;;;;22.05;8.20;;;;;;;9.39;40.46;101474.19;5072893;28;20057;-78
2022/03/22 07:25:16;;;;;;;22.52;7.93;;;;;;;9.45;39.58;101463.09;5073030;28;20048;-78
2022/03/22 07:27:44;;;;;;;25.08;8.35;;;;;;;9.46;39.33;101433.53;5072772;28;20064;-77
2022/03/22 07:30:12;;;;;;;17.38;7.57;;;;;;;9.61;39.27;101466.25;5071170;28;20460;-78
2022/03/22 07:32:40;;;;;;;20.65;8.10;;;;;;;9.59;39.38;101460.09;5072656;28;20048;-77
2022/03/22 07:35:08;;;;;;;22.70;8.27;;;;;;;9.73;39.77;101467.50;5072804;28;20105;-76
2022/03/22 07:37:36;;;;;;;21.00;7.10;;;;;;;9.56;39.65;101430.41;5072484;28;20052;-78
2022/03/22 07:40:06;;;;;;;24.02;9.25;;;;;;;9.63;39.26;101435.84;5075771;28;20131;-78
2022/03/22 07:42:58;;;;;;;;;;;;;;;9.64;40.33;101460.25;5088939;28;20059;-78
2022/03/22 07:45:28;;;;;;;18.02;6.90;;;;;;;9.82;39.50;101446.91;5081102;28;20442;-77
2022/03/22 07:47:56;;;;;;;16.08;6.20;;;;;;;9.97;38.92;101441.28;5083190;28;20055;-77
2022/03/22 07:53:10;;;;;;;21.08;6.35;;;;;;;10.16;38.58;101442.72;5083974;28;20051;-79
2022/03/22 07:56:03;;;;;;;19.77;5.55;;;;;;;10.27;38.04;101430.00;5066754;28;20410;-80
2022/03/22 07:58:30;;;;;;;19.52;6.18;;;;;;;10.30;37.79;101445.75;5083418;28;20051;-80
2022/03/22 08:00:58;;;;;;;19.40;4.65;;;;;;;10.27;37.50;101435.22;5085508;28;20045;-80
2022/03/22 08:03:26;;;;;;;16.92;5.32;;;;;;;9.76;37.23;101348.41;5095692;28;20052;-78
2022/03/22 08:05:54;;;;;;;12.10;4.50;;;;;;;10.28;36.92;101416.06;5095671;28;20517;-79
2022/03/22 08:08:26;;;;;;;13.40;3.73;;;;;;;10.27;36.75;101403.88;5108230;28;20043;-77
2022/03/22 08:11:01;;;;;;;12.50;3.90;;;;;;;10.13;36.57;101374.72;5113041;28;20245;-83
2022/03/22 08:13:34;;;;;;;16.58;4.53;;;;;;;10.33;36.38;101407.56;5087720;28;20083;-79
2022/03/22 08:16:01;;;;;;;18.67;4.70;;;;;;;10.47;36.68;101413.19;5088318;28;20520;-79
2022/03/22 08:18:28;;;;;;;13.07;4.95;;;;;;;10.52;35.98;101398.53;5080769;28;20068;-82
2022/03/22 08:20:55;;;;;;;11.75;4.90;;;;;;;10.45;35.70;101383.50;5095205;28;20047;-80
2022/03/22 08:23:23;;;;;;;11.68;4.40;;;;;;;10.56;35.70;101379.50;5094643;28;20052;-79
2022/03/22 08:25:51;;;;;;;14.55;4.90;;;;;;;10.35;35.24;101335.38;5080905;28;20048;-79
2022/03/22 08:28:18;;;;;;;17.88;5.07;;;;;;;10.87;35.00;101406.44;5075334;28;20498;-79
2022/03/22 08:30:48;;;;;;;18.90;5.10;;;;;;;10.75;35.54;101353.84;5065236;28;20072;-80
2022/03/22 08:33:22;;;;;;;15.57;4.32;;;;;;;10.98;34.38;101396.28;5088633;28;20056;-79
2022/03/22 08:35:52;;;;;;;16.60;5.10;;;;;;;10.99;34.03;101372.78;5079719;28;20059;-80
2022/03/22 08:38:26;;;;;;;10.35;4.15;;;;;;;10.97;32.82;101357.88;5076807;28;20135;-82
2022/03/22 08:40:56;;;;;;;18.27;4.82;;;;;;;11.01;32.46;101339.72;5076102;28;20048;-80
2022/03/22 08:43:30;;;;;;;14.02;3.83;;;;;;;11.05;31.65;101332.81;5076847;28;20070;-80
2022/03/22 08:45:57;;;;;;;8.35;3.10;;;;;;;11.00;31.38;101337.94;5057427;28;20143;-80
2022/03/22 08:48:25;;;;;;;19.88;4.13;;;;;;;11.15;30.33;101366.22;5075103;28;20422;-79
2022/03/22 08:50:53;;;;;;;10.48;3.25;;;;;;;11.17;29.99;101371.50;5074308;28;20072;-81
2022/03/22 08:53:21;;;;;;;14.90;3.35;;;;;;;11.20;29.66;101350.63;5076028;28;20048;-80
2022/03/22 08:55:51;;;;;;;9.88;4.68;;;;;;;11.23;29.49;101337.63;5077530;28;20048;-81
2022/03/22 08:58:18;;;;;;;11.15;4.43;;;;;;;11.27;29.14;101326.38;5081515;28;20084;-81
2022/03/22 09:00:46;;;;;;;17.67;5.45;;;;;;;11.38;28.67;101335.38;5074709;28;20525;-79
2022/03/22 09:03:13;;;;;;;11.60;3.80;;;;;;;11.26;27.95;101327.22;5075270;28;20072;-81
2022/03/22 09:08:26;;;;;;;12.80;2.92;;;;;;;11.16;28.37;101275.53;5074976;28;20113;-79
2022/03/22 09:10:54;;;;;;;13.98;3.38;;;;;;;11.40;28.12;101304.91;5073336;28;20049;-79
2022/03/22 09:13:20;;;;;;;7.85;3.08;;;;;;;11.43;27.64;101283.16;5077073;28;20053;-81
2022/03/22 09:15:51;;;;;;;7.85;2.90;;;;;;;11.61;27.35;101319.31;5075226;28;20048;-83
2022/03/22 09:18:24;;;;;;;9.20;2.95;;;;;;;11.69;27.18;101312.50;5074254;28;20056;-79
2022/03/22 09:20:53;;;;;;;8.18;2.55;;;;;;;11.72;26.91;101316.94;5074763;28;20057;-80
2022/03/22 09:23:21;;;;;;;9.85;3.10;;;;;;;11.77;26.51;101325.78;5073412;28;20488;-80
2022/03/22 09:25:50;;;;;;;9.02;2.90;;;;;;;11.82;26.25;101309.31;5074498;28;20590;-79
2022/03/22 09:28:20;;;;;;;8.37;2.50;;;;;;;11.67;26.12;101304.63;5074425;28;20555;-80
2022/03/22 09:30:48;;;;;;;16.92;4.30;;;;;;;11.71;26.28;101292.50;5074474;28;20049;-79
2022/03/22 09:33:17;;;;;;;15.98;2.80;;;;;;;11.94;26.05;101313.97;5072935;28;20049;-78
2022/03/22 09:35:44;;;;;;;13.10;2.85;;;;;;;11.98;25.47;101318.41;5080113;28;20057;-80
2022/03/22 09:38:19;;;;;;;11.48;3.20;;;;;;;11.96;25.52;101321.84;5080515;28;20087;-78
2022/03/22 09:40:46;;;;;;;7.47;2.90;;;;;;;11.95;25.34;101317.47;5094545;28;20130;-81
2022/03/22 09:43:17;;;;;;;13.40;2.60;;;;;;;11.99;25.27;101314.06;5094662;28;20581;-79
2022/03/22 09:45:45;;;;;;;7.50;3.00;;;;;;;11.87;25.26;101317.25;5095076;28;20055;-80
2022/03/22 09:48:16;;;;;;;13.40;5.15;;;;;;;11.98;25.28;101317.50;5092317;28;20131;-81
2022/03/22 09:53:30;;;;;;;8.85;3.05;;;;;;;11.95;24.21;101305.25;5074995;28;20056;-81
2022/03/22 09:55:57;;;;;;;20.85;9.18;;;;;;;11.98;25.00;101293.94;5072276;28;20048;-81
2022/03/22 09:58:24;;;;;;;7.47;2.50;;;;;;;12.14;24.18;101321.34;5074614;28;20052;-82
2022/03/22 10:00:51;;;;;;;8.27;3.20;;;;;;;12.15;24.14;101315.25;5073039;28;20094;-79
2022/03/22 10:03:21;;;;;;;;;;;;;;;12.01;25.01;101326.31;5074007;28;20249;-82
2022/03/22 10:06:05;;;;;;;12.88;3.13;;;;;;;12.03;24.39;101302.78;5074720;28;19925;-80
2022/03/22 10:08:36;;;;;;;9.80;3.10;;;;;;;12.16;24.02;101312.66;5046926;28;20449;-80
2022/03/22 10:11:04;;;;;;;8.60;3.15;;;;;;;12.17;24.15;101330.13;5086067;28;20063;-81
2022/03/22 10:13:34;;;;;;;17.50;3.80;;;;;;;12.19;24.36;101309.22;5095623;28;20059;-81
2022/03/22 10:16:05;;;;;;;9.48;4.30;;;;;;;12.19;24.39;101298.75;5099232;28;20067;-80
2022/03/22 10:18:35;;;;;;;7.63;2.70;;;;;;;12.20;23.69;101285.69;5098781;28;20047;-80
2022/03/22 10:21:07;;;;;;;13.35;3.10;;;;;;;12.08;24.27;101243.53;5094025;28;20520;-79
2022/03/22 10:23:53;;;;;;;5.88;2.28;;;;;;;12.45;23.49;101289.66;5094289;28;20094;-81
2022/03/22 10:26:33;;;;;;;9.02;2.60;;;;;;;12.00;23.16;101225.06;5094298;28;20044;-82
2022/03/22 10:29:04;;;;;;;4.05;1.75;;;;;;;12.48;22.40;101284.44;5094006;28;20059;-79
2022/03/22 10:31:34;;;;;;;5.90;1.88;;;;;;;12.21;22.60;101235.03;5093326;28;20116;-79
2022/03/22 10:34:04;;;;;;;5.53;1.60;;;;;;;12.40;22.04;101275.56;5094991;28;20048;-79
2022/03/22 10:36:38;;;;;;;8.60;2.25;;;;;;;11.94;22.39;101177.81;5092728;28;20071;-80
2022/03/22 10:39:11;;;;;;;5.57;2.22;;;;;;;12.54;22.34;101275.84;5094950;28;20542;-79
2022/03/22 10:41:46;;;;;;;3.03;1.50;;;;;;;12.52;22.16;101279.25;5112646;28;20043;-80
2022/03/22 10:44:18;;;;;;;4.10;1.80;;;;;;;12.47;21.77;101266.06;5117749;28;20052;-80
2022/03/22 10:46:47;;;;;;;3.10;1.80;;;;;;;12.45;21.71;101267.78;5104639;28;20067;-81
2022/03/22 10:49:16;;;;;;;3.95;2.00;;;;;;;12.45;22.07;101266.06;5093757;28;20052;-80
2022/03/22 10:52:00;;;;;;;5.75;1.83;;;;;;;12.41;22.12;101238.03;5093890;28;20047;-80
2022/03/22 10:54:27;;;;;;;4.32;1.73;;;;;;;12.38;22.00;101219.63;5094044;28;20083;-83
2022/03/22 10:56:56;;;;;;;3.22;1.60;;;;;;;12.57;21.71;101259.28;5094278;28;20058;-79
2022/03/22 10:59:26;;;;;;;3.28;1.33;;;;;;;12.55;22.01;101246.13;5093603;28;20143;-80
2022/03/22 11:01:55;;;;;;;;;;;;;;;12.40;22.66;101248.47;5093498;28;20501;-81
2022/03/22 11:04:23;;;;;;;3.45;1.80;;;;;;;12.53;22.60;101250.47;5093028;28;20013;-79
2022/03/22 11:06:54;;;;;;;3.55;2.00;;;;;;;12.49;22.24;101233.78;5092772;28;20048;-78
2022/03/22 11:09:21;;;;;;;4.95;2.45;;;;;;;12.59;22.84;101258.44;5092965;28;20075;-80
2022/03/22 11:11:50;;;;;;;3.80;1.70;;;;;;;12.63;22.64;101238.41;5092679;28;20585;-80
2022/03/22 11:14:18;;;;;;;4.43;2.00;;;;;;;12.64;22.93;101233.16;5092675;28;20068;-80
2022/03/22 11:16:47;;;;;;;5.18;1.73;;;;;;;12.81;22.59;101245.69;5092632;28;20070;-79
2022/03/22 11:19:21;;;;;;;3.55;1.38;;;;;;;12.75;22.42;101217.63;5093139;28;20048;-79
2022/03/22 11:21:48;;;;;;;4.97;1.58;;;;;;;12.78;22.41;101241.28;5093376;28;20093;-79
2022/03/22 11:24:23;;;;;;;4.20;1.45;;;;;;;12.66;22.49;101194.75;5093247;28;20510;-80
2022/03/22 11:26:55;;;;;;;9.15;1.67;;;;;;;12.97;22.55;101233.69;5091806;28;20076;-79
2022/03/22 11:29:25;;;;;;;7.43;1.83;;;;;;;12.98;22.10;101222.34;5093091;28;20048;-82
2022/03/22 11:34:40;;;;;;;3.63;1.25;;;;;;;12.63;21.97;101196.47;5093344;28;19931;-80
2022/03/22 11:37:09;;;;;;;1.95;1.20;;;;;;;12.77;21.61;101238.63;5092035;28;20147;-80
2022/03/22 11:42:24;;;;;;;4.63;1.80;;;;;;;12.83;21.88;101218.63;5093207;28;20066;-79
2022/03/22 11:45:17;;;;;;;5.68;1.45;;;;;;;12.71;22.48;101171.22;5092886;28;20573;-81
2022/03/22 11:47:45;;;;;;;4.80;1.52;;;;;;;12.84;21.90;101198.53;5093587;28;20498;-79
2022/03/22 11:50:16;;;;;;;2.47;1.45;;;;;;;12.87;21.93;101209.06;5096460;28;20056;-80
2022/03/22 11:52:44;;;;;;;8.07;2.10;;;;;;;12.82;22.39;101202.84;5102188;28;20150;-79
2022/03/22 11:55:23;;;;;;;5.28;1.42;;;;;;;12.77;22.26;101192.31;5096606;28;20055;-80
2022/03/22 11:58:03;;;;;;;2.83;1.15;;;;;;;12.85;21.81;101187.19;5097010;28;20121;-79
2022/03/22 12:00:47;;;;;;;2.97;0.95;;;;;;;12.85;21.82;101205.53;5078826;28;20052;-79
2022/03/22 12:03:22;;;;;;;5.93;1.50;;;;;;;12.80;22.11;101192.38;5097121;28;20055;-80
2022/03/22 12:05:52;;;;;;;4.63;1.77;;;;;;;12.76;22.04;101198.41;5096815;28;20501;-79
2022/03/22 12:08:19;;;;;;;4.75;1.50;;;;;;;12.60;22.06;101178.06;5095674;28;20101;-81